Time;durP1;ratioP1;P1;durP2;ratioP2;P2;SDS_P1;SDS_P2;PMS_P1;PMS_P2;Temp;Humidity;BMP_temperature;BMP_pressure;BME280_temperature;BME280_humidity;BME280_pressure;Samples;Min_cycle;Max_cycle;Signal;HPM_P1;HPM_P2
2024/01/27 00:02:07;;;;;;;5.40;2.65;;;;;;;;;;5054580;27;92812;-76
2024/01/27 00:04:35;;;;;;;7.53;2.67;;;;;;;;;;5051966;27;92488;-77
2024/01/27 00:07:01;;;;;;;5.78;2.63;;;;;;;;;;5045356;27;92382;-77
2024/01/27 00:09:28;;;;;;;12.10;3.75;;;;;;;;;;5032320;27;94851;-77
2024/01/27 00:11:54;;;;;;;8.05;2.42;;;;;;;;;;5053237;27;94433;-77
2024/01/27 00:14:21;;;;;;;12.15;2.65;;;;;;;;;;5055181;27;92466;-77
2024/01/27 00:16:47;;;;;;;10.82;2.38;;;;;;;;;;5053446;27;93449;-77
2024/01/27 00:19:14;;;;;;;9.43;2.60;;;;;;;;;;5052720;27;93241;-77
2024/01/27 00:21:41;;;;;;;5.40;2.20;;;;;;;;;;5052163;27;92884;-77
2024/01/27 00:24:07;;;;;;;11.73;2.60;;;;;;;;;;5052663;27;92293;-77
2024/01/27 00:26:34;;;;;;;9.32;2.40;;;;;;;;;;5053760;27;91827;-77
2024/01/27 00:29:00;;;;;;;7.80;2.25;;;;;;;;;;5033742;27;93942;-77
2024/01/27 00:31:27;;;;;;;6.38;2.40;;;;;;;;;;5018192;27;95003;-77
2024/01/27 00:33:53;;;;;;;9.25;2.70;;;;;;;;;;5051268;27;95456;-77
2024/01/27 00:36:20;;;;;;;5.57;2.15;;;;;;;;;;5036405;27;93820;-77
2024/01/27 00:38:46;;;;;;;8.43;2.15;;;;;;;;;;5052682;27;92466;-77
2024/01/27 00:41:16;;;;;;;9.00;2.20;;;;;;;;;;5052172;27;93563;-77
2024/01/27 00:43:43;;;;;;;5.10;2.10;;;;;;;;;;5052868;27;92654;-77
2024/01/27 00:46:09;;;;;;;9.48;2.47;;;;;;;;;;5052709;27;92505;-77
2024/01/27 00:48:36;;;;;;;8.93;2.17;;;;;;;;;;5035241;27;92786;-77
2024/01/27 00:51:02;;;;;;;5.60;2.30;;;;;;;;;;5052862;27;94670;-77
2024/01/27 00:53:29;;;;;;;5.72;2.13;;;;;;;;;;5018233;27;92469;-77
2024/01/27 00:55:55;;;;;;;6.20;2.00;;;;;;;;;;5034517;27;92969;-76
2024/01/27 00:58:22;;;;;;;6.43;2.15;;;;;;;;;;5054641;27;95444;-77
2024/01/27 01:00:48;;;;;;;5.78;2.30;;;;;;;;;;5052583;27;92411;-77
2024/01/27 01:03:15;;;;;;;7.43;2.35;;;;;;;;;;5017170;27;94089;-77
2024/01/27 01:05:41;;;;;;;5.90;2.15;;;;;;;;;;5051853;27;92247;-77
2024/01/27 01:08:08;;;;;;;4.85;2.13;;;;;;;;;;5052419;27;92398;-77
2024/01/27 01:10:34;;;;;;;5.35;2.17;;;;;;;;;;5033168;27;94906;-77
2024/01/27 01:13:01;;;;;;;3.58;1.80;;;;;;;;;;5052992;27;92377;-77
2024/01/27 01:15:27;;;;;;;12.70;2.42;;;;;;;;;;5053032;27;92396;-77
2024/01/27 01:17:54;;;;;;;4.53;2.00;;;;;;;;;;5053008;27;92386;-77
2024/01/27 01:20:21;;;;;;;4.90;2.20;;;;;;;;;;5053926;27;93197;-77
2024/01/27 01:22:48;;;;;;;7.53;2.65;;;;;;;;;;5051826;27;94861;-77
2024/01/27 01:25:14;;;;;;;7.97;2.50;;;;;;;;;;5032945;27;92620;-77
2024/01/27 01:27:41;;;;;;;9.85;2.88;;;;;;;;;;5039825;27;92498;-77
2024/01/27 01:30:07;;;;;;;5.65;2.25;;;;;;;;;;5051024;27;92489;-77
2024/01/27 01:32:34;;;;;;;4.53;1.75;;;;;;;;;;5053115;27;93245;-77
2024/01/27 01:35:01;;;;;;;6.30;2.15;;;;;;;;;;5050821;27;92360;-77
2024/01/27 01:37:27;;;;;;;10.55;2.90;;;;;;;;;;5034056;27;92436;-77
2024/01/27 01:39:54;;;;;;;9.23;1.95;;;;;;;;;;5054526;27;92502;-77
2024/01/27 01:42:24;;;;;;;8.40;2.33;;;;;;;;;;5052875;27;92256;-77
2024/01/27 01:44:51;;;;;;;13.45;3.78;;;;;;;;;;5050552;27;92912;-77
2024/01/27 01:47:18;;;;;;;6.10;3.05;;;;;;;;;;5052512;27;94914;-77
2024/01/27 01:49:44;;;;;;;9.75;2.55;;;;;;;;;;5036870;27;95133;-77
2024/01/27 01:52:11;;;;;;;6.45;2.05;;;;;;;;;;5056533;27;93609;-77
2024/01/27 01:54:37;;;;;;;4.70;2.47;;;;;;;;;;5053887;27;93169;-77
2024/01/27 01:57:04;;;;;;;5.22;1.80;;;;;;;;;;5037689;27;95114;-77
2024/01/27 01:59:30;;;;;;;15.27;2.50;;;;;;;;;;5035185;27;93590;-77
2024/01/27 02:01:57;;;;;;;11.45;2.65;;;;;;;;;;5058460;27;92425;-77
2024/01/27 02:04:23;;;;;;;10.93;2.67;;;;;;;;;;5055208;27;92030;-77
2024/01/27 02:06:50;;;;;;;7.32;2.17;;;;;;;;;;5055094;27;92424;-77
2024/01/27 02:09:16;;;;;;;9.23;2.28;;;;;;;;;;5054482;27;93362;-76
2024/01/27 02:11:43;;;;;;;4.28;1.83;;;;;;;;;;5053399;27;94782;-77
2024/01/27 02:14:10;;;;;;;7.28;2.83;;;;;;;;;;5054909;27;92481;-77
2024/01/27 02:16:36;;;;;;;7.15;2.30;;;;;;;;;;5036310;27;93134;-76
2024/01/27 02:19:03;;;;;;;6.10;2.30;;;;;;;;;;5055080;27;93211;-76
2024/01/27 02:21:30;;;;;;;8.30;2.53;;;;;;;;;;5055195;27;92522;-76
2024/01/27 02:23:57;;;;;;;7.30;2.45;;;;;;;;;;5057211;27;92321;-76
2024/01/27 02:26:24;;;;;;;5.13;1.90;;;;;;;;;;5036969;27;93875;-76
2024/01/27 02:28:50;;;;;;;7.05;1.67;;;;;;;;;;5054430;27;92835;-78
2024/01/27 02:31:17;;;;;;;10.00;2.45;;;;;;;;;;5054161;27;93132;-76
2024/01/27 02:33:43;;;;;;;8.10;2.15;;;;;;;;;;5055660;27;92490;-76
2024/01/27 02:36:10;;;;;;;11.38;2.60;;;;;;;;;;5052973;27;96595;-76
2024/01/27 02:38:37;;;;;;;6.47;2.20;;;;;;;;;;5035274;27;94617;-76
2024/01/27 02:41:03;;;;;;;6.43;2.53;;;;;;;;;;5035385;27;95667;-76
2024/01/27 02:43:29;;;;;;;12.90;3.20;;;;;;;;;;5054652;27;92765;-77
2024/01/27 02:45:56;;;;;;;5.15;1.92;;;;;;;;;;5057118;27;93284;-77
2024/01/27 02:48:22;;;;;;;6.90;1.92;;;;;;;;;;5055035;27;92419;-77
2024/01/27 02:50:49;;;;;;;5.47;2.13;;;;;;;;;;5022059;28;95716;-77
2024/01/27 02:53:16;;;;;;;7.18;2.17;;;;;;;;;;5054409;27;91935;-76
2024/01/27 02:55:42;;;;;;;9.73;2.92;;;;;;;;;;5035150;27;92559;-77
2024/01/27 02:58:09;;;;;;;8.93;2.03;;;;;;;;;;5036316;27;93190;-77
2024/01/27 03:00:37;;;;;;;7.20;1.90;;;;;;;;;;5051980;27;94691;-76
2024/01/27 03:03:04;;;;;;;7.28;2.35;;;;;;;;;;5054261;27;95245;-77
2024/01/27 03:05:30;;;;;;;12.25;2.53;;;;;;;;;;5052436;27;92797;-76
2024/01/27 03:07:57;;;;;;;6.07;2.05;;;;;;;;;;5057771;27;92390;-77
2024/01/27 03:10:23;;;;;;;4.13;1.60;;;;;;;;;;5053201;27;93033;-77
2024/01/27 03:12:50;;;;;;;5.28;1.90;;;;;;;;;;5055267;27;92560;-77
2024/01/27 03:15:16;;;;;;;9.13;2.65;;;;;;;;;;5053364;27;92446;-77
2024/01/27 03:17:43;;;;;;;8.35;2.42;;;;;;;;;;5037345;27;92612;-77
2024/01/27 03:20:09;;;;;;;11.43;2.70;;;;;;;;;;5053029;27;92583;-77
2024/01/27 03:22:36;;;;;;;4.45;1.90;;;;;;;;;;5054581;27;92456;-79
2024/01/27 03:25:12;;;;;;;10.18;2.80;;;;;;;;;;5051722;27;94828;-78
2024/01/27 03:27:52;;;;;;;6.70;2.05;;;;;;;;;;5043166;27;93102;-77
2024/01/27 03:30:19;;;;;;;5.05;2.00;;;;;;;;;;5056771;27;92503;-78
2024/01/27 03:32:46;;;;;;;3.72;1.60;;;;;;;;;;5054027;27;92839;-77
2024/01/27 03:35:13;;;;;;;4.15;1.60;;;;;;;;;;5052725;27;92960;-77
2024/01/27 03:37:39;;;;;;;6.95;1.90;;;;;;;;;;5053947;27;93164;-77
2024/01/27 03:40:06;;;;;;;5.25;2.13;;;;;;;;;;5050899;27;92988;-77
2024/01/27 03:42:33;;;;;;;11.02;2.10;;;;;;;;;;5054756;27;92931;-76
2024/01/27 03:44:59;;;;;;;6.95;2.40;;;;;;;;;;5053623;27;92206;-76
2024/01/27 03:47:26;;;;;;;7.30;2.30;;;;;;;;;;5054431;27;92916;-76
2024/01/27 03:49:52;;;;;;;12.88;2.35;;;;;;;;;;5036240;27;94831;-76
2024/01/27 03:52:19;;;;;;;7.55;2.60;;;;;;;;;;5054174;27;93949;-77
2024/01/27 03:54:46;;;;;;;7.25;2.00;;;;;;;;;;5034175;27;92910;-76
2024/01/27 03:57:12;;;;;;;6.25;2.40;;;;;;;;;;5035825;27;93324;-76
2024/01/27 03:59:40;;;;;;;8.70;2.28;;;;;;;;;;5052558;27;92947;-76
2024/01/27 04:02:06;;;;;;;4.63;1.88;;;;;;;;;;5053655;27;92747;-76
2024/01/27 04:04:33;;;;;;;4.78;2.20;;;;;;;;;;5053394;27;92491;-76
2024/01/27 04:07:01;;;;;;;9.07;2.22;;;;;;;;;;5054141;27;91596;-76
2024/01/27 04:09:28;;;;;;;7.78;2.15;;;;;;;;;;5052414;27;92266;-76
2024/01/27 04:11:55;;;;;;;6.35;1.80;;;;;;;;;;5022046;27;94014;-76
2024/01/27 04:14:21;;;;;;;6.22;2.10;;;;;;;;;;5052208;27;94773;-76
2024/01/27 04:16:48;;;;;;;6.10;2.42;;;;;;;;;;5053790;27;92462;-76
2024/01/27 04:19:15;;;;;;;7.13;1.83;;;;;;;;;;5053318;27;92912;-76
2024/01/27 04:21:42;;;;;;;5.90;2.28;;;;;;;;;;5018199;27;92470;-76
2024/01/27 04:24:09;;;;;;;7.82;1.90;;;;;;;;;;5052015;27;92408;-76
2024/01/27 04:26:37;;;;;;;5.88;1.77;;;;;;;;;;5035944;27;92432;-76
2024/01/27 04:29:04;;;;;;;9.50;2.53;;;;;;;;;;5051471;27;93469;-76
2024/01/27 04:31:33;;;;;;;8.00;2.28;;;;;;;;;;5035151;27;92131;-76
2024/01/27 04:34:00;;;;;;;5.05;1.83;;;;;;;;;;5053154;27;92315;-77
2024/01/27 04:36:28;;;;;;;6.63;1.80;;;;;;;;;;5052165;27;92416;-77
2024/01/27 04:38:54;;;;;;;13.73;2.78;;;;;;;;;;5043492;27;94861;-78
2024/01/27 04:41:21;;;;;;;7.05;2.55;;;;;;;;;;5034278;27;94415;-78
2024/01/27 04:43:48;;;;;;;5.90;2.35;;;;;;;;;;5035206;27;92260;-79
2024/01/27 04:46:14;;;;;;;6.88;1.83;;;;;;;;;;5052333;27;92826;-77
2024/01/27 04:48:41;;;;;;;8.57;2.70;;;;;;;;;;5052947;27;92710;-77
2024/01/27 04:51:07;;;;;;;4.30;1.75;;;;;;;;;;5033997;27;94074;-78
2024/01/27 04:53:34;;;;;;;6.78;2.22;;;;;;;;;;5052377;27;92471;-78
2024/01/27 04:56:00;;;;;;;6.03;2.10;;;;;;;;;;5037760;27;92115;-78
2024/01/27 04:58:27;;;;;;;6.70;2.05;;;;;;;;;;5051520;27;92400;-78
2024/01/27 05:00:53;;;;;;;4.97;1.95;;;;;;;;;;5051718;27;92480;-77
2024/01/27 05:03:20;;;;;;;7.68;2.00;;;;;;;;;;5032756;27;96944;-77
2024/01/27 05:05:46;;;;;;;4.15;2.10;;;;;;;;;;5051638;27;92522;-77
2024/01/27 05:08:13;;;;;;;3.60;1.98;;;;;;;;;;5047424;27;93368;-78
2024/01/27 05:10:39;;;;;;;4.90;1.90;;;;;;;;;;5051995;27;92989;-77
2024/01/27 05:13:06;;;;;;;7.40;2.05;;;;;;;;;;5034502;27;92555;-77
2024/01/27 05:15:32;;;;;;;5.57;1.80;;;;;;;;;;5016435;27;94216;-77
2024/01/27 05:17:59;;;;;;;12.30;2.63;;;;;;;;;;5020801;27;94687;-77
2024/01/27 05:20:26;;;;;;;8.80;2.58;;;;;;;;;;5033571;27;92358;-77
2024/01/27 05:22:52;;;;;;;4.25;1.70;;;;;;;;;;5036267;27;95310;-78
2024/01/27 05:25:19;;;;;;;10.55;2.92;;;;;;;;;;5055507;27;92402;-78
2024/01/27 05:27:45;;;;;;;6.45;2.50;;;;;;;;;;5054414;27;95548;-78
2024/01/27 05:30:12;;;;;;;4.60;1.83;;;;;;;;;;5052827;27;92411;-78
2024/01/27 05:32:38;;;;;;;7.07;1.88;;;;;;;;;;5037999;27;93767;-78
2024/01/27 05:35:05;;;;;;;6.13;2.35;;;;;;;;;;5055094;27;92538;-78
2024/01/27 05:37:32;;;;;;;7.22;2.33;;;;;;;;;;5055332;27;92439;-78
2024/01/27 05:39:58;;;;;;;6.13;2.55;;;;;;;;;;5038760;27;92254;-78
2024/01/27 05:42:25;;;;;;;7.30;2.30;;;;;;;;;;5058124;27;92985;-79
2024/01/27 05:44:51;;;;;;;8.55;2.63;;;;;;;;;;5055935;27;92143;-78
2024/01/27 05:47:18;;;;;;;6.22;2.60;;;;;;;;;;5038562;27;94355;-77
2024/01/27 05:49:44;;;;;;;6.15;2.47;;;;;;;;;;5035546;27;93283;-77
2024/01/27 05:52:11;;;;;;;4.30;2.30;;;;;;;;;;5055164;27;94948;-78
2024/01/27 05:54:51;;;;;;;12.23;2.80;;;;;;;;;;5055551;27;94486;-78
2024/01/27 05:57:17;;;;;;;10.23;2.85;;;;;;;;;;5038070;27;94509;-78
2024/01/27 05:59:43;;;;;;;6.45;2.17;;;;;;;;;;5057418;27;92297;-78
2024/01/27 06:02:11;;;;;;;7.55;2.28;;;;;;;;;;5056056;27;93240;-77
2024/01/27 06:04:37;;;;;;;12.27;2.80;;;;;;;;;;5054016;27;92842;-77
2024/01/27 06:07:03;;;;;;;7.85;2.65;;;;;;;;;;5037835;27;92473;-77
2024/01/27 06:09:30;;;;;;;6.50;3.03;;;;;;;;;;5055008;27;92069;-77
2024/01/27 06:12:00;;;;;;;5.20;2.45;;;;;;;;;;5055167;27;92958;-77
2024/01/27 06:14:27;;;;;;;8.77;2.40;;;;;;;;;;5054968;27;92338;-77
2024/01/27 06:16:53;;;;;;;5.25;2.50;;;;;;;;;;5053211;27;96153;-77
2024/01/27 06:19:20;;;;;;;14.85;3.47;;;;;;;;;;5053964;27;93256;-77
2024/01/27 06:21:47;;;;;;;8.50;2.75;;;;;;;;;;5058214;27;93311;-77
2024/01/27 06:24:13;;;;;;;9.25;3.22;;;;;;;;;;5035525;27;94574;-77
2024/01/27 06:26:40;;;;;;;6.00;2.22;;;;;;;;;;5037524;27;93927;-77
2024/01/27 06:29:06;;;;;;;12.15;2.80;;;;;;;;;;5053559;27;95117;-77
2024/01/27 06:31:33;;;;;;;4.95;2.75;;;;;;;;;;5055019;27;92998;-77
2024/01/27 06:33:59;;;;;;;5.63;1.92;;;;;;;;;;5054092;27;92143;-77
2024/01/27 06:36:27;;;;;;;5.60;2.33;;;;;;;;;;5054772;27;92412;-77
2024/01/27 06:38:54;;;;;;;6.90;2.40;;;;;;;;;;5053896;27;92412;-77
2024/01/27 06:41:21;;;;;;;6.53;2.63;;;;;;;;;;5053182;27;94853;-77
2024/01/27 06:43:47;;;;;;;4.93;2.47;;;;;;;;;;5057234;27;92355;-77
2024/01/27 06:46:14;;;;;;;19.55;2.33;;;;;;;;;;5030358;27;92969;-77
2024/01/27 06:48:40;;;;;;;5.82;2.55;;;;;;;;;;5019648;27;95449;-78
2024/01/27 06:51:07;;;;;;;13.10;3.28;;;;;;;;;;5036091;27;94338;-77
2024/01/27 06:53:33;;;;;;;8.77;3.72;;;;;;;;;;5019879;27;93920;-77
2024/01/27 06:56:00;;;;;;;12.07;3.15;;;;;;;;;;5038337;27;93229;-78
2024/01/27 06:58:27;;;;;;;6.68;2.60;;;;;;;;;;5037674;27;93059;-78
2024/01/27 07:00:53;;;;;;;7.63;3.25;;;;;;;;;;5037718;27;92452;-77
2024/01/27 07:03:20;;;;;;;10.23;2.72;;;;;;;;;;5038261;27;94086;-77
2024/01/27 07:05:47;;;;;;;6.63;2.15;;;;;;;;;;5037948;27;94876;-77
2024/01/27 07:08:14;;;;;;;8.68;2.63;;;;;;;;;;5054026;27;92315;-77
2024/01/27 07:10:41;;;;;;;11.93;3.63;;;;;;;;;;5053142;27;92449;-77
2024/01/27 07:13:07;;;;;;;6.35;2.30;;;;;;;;;;5054930;27;93323;-77
2024/01/27 07:15:34;;;;;;;9.90;2.85;;;;;;;;;;5054428;27;92860;-78
2024/01/27 07:18:00;;;;;;;10.82;2.67;;;;;;;;;;5055930;27;92253;-78
2024/01/27 07:20:28;;;;;;;9.95;2.97;;;;;;;;;;5053838;27;92494;-78
2024/01/27 07:22:55;;;;;;;7.85;2.70;;;;;;;;;;5055413;27;92785;-77
2024/01/27 07:25:22;;;;;;;10.63;3.25;;;;;;;;;;5053852;27;92489;-77
2024/01/27 07:27:48;;;;;;;6.50;2.53;;;;;;;;;;5057378;27;92389;-77
2024/01/27 07:30:15;;;;;;;6.82;3.17;;;;;;;;;;5051945;27;95522;-77
2024/01/27 07:32:43;;;;;;;15.88;2.88;;;;;;;;;;5053879;27;93940;-77
2024/01/27 07:35:11;;;;;;;9.45;3.58;;;;;;;;;;5052668;27;92499;-77
2024/01/27 07:37:38;;;;;;;6.43;2.88;;;;;;;;;;5034324;27;93724;-77
2024/01/27 07:40:05;;;;;;;7.03;3.28;;;;;;;;;;5051053;27;92385;-77
2024/01/27 07:42:31;;;;;;;7.43;3.28;;;;;;;;;;5054030;27;93021;-77
2024/01/27 07:44:58;;;;;;;8.00;3.38;;;;;;;;;;5053893;27;92844;-77
2024/01/27 07:47:25;;;;;;;6.65;3.35;;;;;;;;;;5062057;27;91908;-77
2024/01/27 07:49:52;;;;;;;11.20;3.30;;;;;;;;;;5034373;27;95423;-77
2024/01/27 07:52:19;;;;;;;4.95;2.58;;;;;;;;;;5053427;27;92437;-75
2024/01/27 07:54:45;;;;;;;9.32;2.72;;;;;;;;;;5029627;27;95071;-75
2024/01/27 07:57:12;;;;;;;6.82;2.83;;;;;;;;;;5032899;27;92619;-76
2024/01/27 07:59:39;;;;;;;8.32;2.70;;;;;;;;;;5049417;27;92875;-76
2024/01/27 08:02:05;;;;;;;6.03;2.97;;;;;;;;;;5050944;27;92291;-76
2024/01/27 08:04:32;;;;;;;7.40;2.95;;;;;;;;;;5032045;27;92539;-76
2024/01/27 08:06:58;;;;;;;4.60;2.25;;;;;;;;;;5049796;27;92474;-76
2024/01/27 08:09:25;;;;;;;5.28;2.55;;;;;;;;;;5036015;27;92494;-76
2024/01/27 08:11:52;;;;;;;12.20;3.08;;;;;;;;;;5053730;27;92594;-76
2024/01/27 08:14:19;;;;;;;11.98;3.03;;;;;;;;;;5042061;27;92176;-76
2024/01/27 08:16:46;;;;;;;9.55;3.33;;;;;;;;;;5052606;27;92933;-76
2024/01/27 08:19:13;;;;;;;14.13;3.00;;;;;;;;;;5015774;27;95244;-76
2024/01/27 08:21:40;;;;;;;4.38;2.55;;;;;;;;;;5052705;27;93825;-76
2024/01/27 08:24:06;;;;;;;7.57;3.20;;;;;;;;;;5017702;27;93000;-76
2024/01/27 08:26:33;;;;;;;5.18;3.33;;;;;;;;;;5053648;27;92478;-76
2024/01/27 08:28:59;;;;;;;12.77;3.65;;;;;;;;;;5033498;27;92477;-77
2024/01/27 08:31:25;;;;;;;7.65;2.95;;;;;;;;;;5055896;27;92457;-76
2024/01/27 08:33:52;;;;;;;6.80;2.75;;;;;;;;;;5051786;27;92418;-76
2024/01/27 08:36:19;;;;;;;8.05;2.60;;;;;;;;;;5035460;27;92644;-76
2024/01/27 08:38:46;;;;;;;8.30;2.55;;;;;;;;;;5052247;27;93022;-76
2024/01/27 08:41:12;;;;;;;6.28;2.58;;;;;;;;;;5052201;27;93036;-76
2024/01/27 08:43:39;;;;;;;8.48;3.15;;;;;;;;;;5050913;27;94524;-76
2024/01/27 08:46:06;;;;;;;7.13;2.78;;;;;;;;;;5051860;27;93969;-76
2024/01/27 08:48:33;;;;;;;8.18;2.90;;;;;;;;;;5053220;27;92498;-76
2024/01/27 08:51:00;;;;;;;5.97;2.28;;;;;;;;;;5034493;27;93169;-77
2024/01/27 08:53:27;;;;;;;8.50;2.92;;;;;;;;;;5052622;27;92808;-76
2024/01/27 08:55:53;;;;;;;3.85;2.20;;;;;;;;;;5030698;27;94462;-76
2024/01/27 08:58:20;;;;;;;5.45;2.60;;;;;;;;;;5049877;27;93303;-76
2024/01/27 09:00:46;;;;;;;6.68;3.13;;;;;;;;;;5050592;27;92381;-76
2024/01/27 09:03:14;;;;;;;7.25;2.90;;;;;;;;;;5031569;27;92605;-75
2024/01/27 09:05:43;;;;;;;6.82;2.83;;;;;;;;;;5049388;27;92513;-76
2024/01/27 09:08:11;;;;;;;8.82;2.95;;;;;;;;;;5031825;27;96678;-76
2024/01/27 09:10:37;;;;;;;5.60;2.67;;;;;;;;;;5051865;27;92543;-76
2024/01/27 09:13:04;;;;;;;5.93;2.97;;;;;;;;;;5052772;27;92792;-76
2024/01/27 09:15:31;;;;;;;5.97;2.70;;;;;;;;;;5054278;27;92445;-76
2024/01/27 09:17:57;;;;;;;14.23;3.90;;;;;;;;;;5052156;27;92760;-76
2024/01/27 09:20:24;;;;;;;11.40;3.28;;;;;;;;;;5050853;27;92519;-76
2024/01/27 09:22:50;;;;;;;4.80;2.67;;;;;;;;;;5052873;27;93180;-76
2024/01/27 09:25:17;;;;;;;9.00;2.50;;;;;;;;;;5051862;27;92800;-76
2024/01/27 09:27:43;;;;;;;6.45;2.63;;;;;;;;;;5033469;27;95010;-76
2024/01/27 09:30:13;;;;;;;6.50;3.08;;;;;;;;;;5052060;27;93458;-76
2024/01/27 09:32:40;;;;;;;8.52;3.00;;;;;;;;;;5045511;27;94698;-76
2024/01/27 09:35:06;;;;;;;5.57;2.28;;;;;;;;;;5033284;27;94988;-76
2024/01/27 09:37:33;;;;;;;9.52;3.20;;;;;;;;;;5055525;27;92922;-76
2024/01/27 09:40:02;;;;;;;8.15;3.33;;;;;;;;;;5020648;27;95038;-75
2024/01/27 09:42:29;;;;;;;6.30;3.22;;;;;;;;;;5052722;27;93058;-76
2024/01/27 09:44:56;;;;;;;7.38;3.13;;;;;;;;;;5050476;27;92347;-76
2024/01/27 09:47:23;;;;;;;11.90;3.20;;;;;;;;;;5017285;27;93948;-76
2024/01/27 09:49:50;;;;;;;9.63;2.90;;;;;;;;;;5032334;27;95135;-75
2024/01/27 09:52:17;;;;;;;7.53;3.10;;;;;;;;;;5034448;27;92119;-76
2024/01/27 09:54:43;;;;;;;6.78;2.92;;;;;;;;;;5050840;27;92925;-78
2024/01/27 09:57:11;;;;;;;4.93;2.95;;;;;;;;;;5052856;27;94822;-76
2024/01/27 09:59:41;;;;;;;6.15;2.50;;;;;;;;;;5048167;27;92464;-76
2024/01/27 10:02:09;;;;;;;8.38;3.30;;;;;;;;;;5050874;27;92496;-77
2024/01/27 10:04:35;;;;;;;5.03;2.95;;;;;;;;;;5048663;27;92629;-77
2024/01/27 10:07:02;;;;;;;8.38;2.85;;;;;;;;;;5031764;27;92900;-77
2024/01/27 10:09:29;;;;;;;8.70;3.85;;;;;;;;;;5052198;27;93859;-77
2024/01/27 10:11:56;;;;;;;11.25;3.03;;;;;;;;;;5054938;27;92979;-77
2024/01/27 10:14:23;;;;;;;10.32;2.90;;;;;;;;;;5054569;27;92362;-76
2024/01/27 10:16:49;;;;;;;6.57;3.17;;;;;;;;;;5055170;27;92252;-77
2024/01/27 10:19:19;;;;;;;7.60;2.75;;;;;;;;;;5039019;27;92441;-77
2024/01/27 10:21:46;;;;;;;9.45;3.25;;;;;;;;;;5053639;27;94756;-77
2024/01/27 10:24:12;;;;;;;8.95;3.17;;;;;;;;;;5053636;27;94181;-77
2024/01/27 10:26:39;;;;;;;10.63;3.25;;;;;;;;;;5037681;27;92563;-76
2024/01/27 10:29:06;;;;;;;8.27;2.88;;;;;;;;;;5036093;27;95710;-77
2024/01/27 10:31:34;;;;;;;18.80;2.92;;;;;;;;;;5054064;27;92297;-77
2024/01/27 10:34:09;;;;;;;12.02;3.33;;;;;;;;;;5054756;27;93018;-76
2024/01/27 10:36:40;;;;;;;5.18;2.72;;;;;;;;;;5054747;27;92452;-77
2024/01/27 10:39:17;;;;;;;14.95;3.20;;;;;;;;;;5052353;27;92826;-77
2024/01/27 10:41:45;;;;;;;8.88;2.67;;;;;;;;;;5037615;27;94325;-76
2024/01/27 10:44:13;;;;;;;6.72;1.98;;;;;;;;;;5035804;27;95403;-77
2024/01/27 10:46:42;;;;;;;11.50;2.90;;;;;;;;;;5033616;27;95582;-77
2024/01/27 10:49:11;;;;;;;8.43;3.10;;;;;;;;;;5055831;27;92957;-76
2024/01/27 10:51:41;;;;;;;5.00;2.42;;;;;;;;;;5054445;27;93474;-76
2024/01/27 10:54:09;;;;;;;11.30;3.42;;;;;;;;;;5055103;27;92368;-76
2024/01/27 10:56:37;;;;;;;6.18;2.28;;;;;;;;;;5053969;27;92893;-76
2024/01/27 10:59:08;;;;;;;7.65;3.08;;;;;;;;;;5054248;27;92593;-76
2024/01/27 11:01:37;;;;;;;8.85;2.95;;;;;;;;;;5035594;27;94520;-76
2024/01/27 11:04:06;;;;;;;6.45;2.75;;;;;;;;;;5057793;27;93191;-76
2024/01/27 11:06:37;;;;;;;6.28;2.42;;;;;;;;;;5019568;27;95282;-76
2024/01/27 11:09:04;;;;;;;12.38;3.38;;;;;;;;;;5054493;27;92480;-77
2024/01/27 11:11:31;;;;;;;9.32;3.22;;;;;;;;;;5033926;27;94974;-76
2024/01/27 11:13:57;;;;;;;6.05;2.45;;;;;;;;;;5035446;27;94306;-77
2024/01/27 11:16:24;;;;;;;7.82;3.10;;;;;;;;;;5054467;27;92596;-76
2024/01/27 11:18:51;;;;;;;7.90;3.40;;;;;;;;;;5036089;27;92904;-76
2024/01/27 11:21:17;;;;;;;18.10;5.55;;;;;;;;;;5054184;27;92469;-76
2024/01/27 11:23:46;;;;;;;78.30;18.75;;;;;;;;;;5034948;27;92471;-76
2024/01/27 11:26:17;;;;;;;65.43;16.25;;;;;;;;;;5057253;27;92455;-76
2024/01/27 11:28:44;;;;;;;45.60;14.77;;;;;;;;;;5035751;27;92237;-76
2024/01/27 11:31:11;;;;;;;40.88;11.57;;;;;;;;;;5053760;27;92210;-76
2024/01/27 11:33:45;;;;;;;41.42;11.15;;;;;;;;;;5035819;27;92870;-77
2024/01/27 11:36:23;;;;;;;39.03;10.20;;;;;;;;;;5020952;28;95639;-76
2024/01/27 11:38:51;;;;;;;34.25;10.45;;;;;;;;;;5050440;27;93998;-76
2024/01/27 11:41:25;;;;;;;39.95;9.60;;;;;;;;;;5029274;27;93958;-76
2024/01/27 11:43:52;;;;;;;24.55;8.15;;;;;;;;;;5053436;27;93192;-75
2024/01/27 11:46:18;;;;;;;25.08;7.72;;;;;;;;;;5035290;27;93997;-76
2024/01/27 11:48:45;;;;;;;18.60;6.28;;;;;;;;;;5056979;27;92390;-76
2024/01/27 11:51:14;;;;;;;24.30;6.07;;;;;;;;;;5034761;27;92463;-76
2024/01/27 11:53:41;;;;;;;15.07;5.47;;;;;;;;;;5053962;27;92339;-76
2024/01/27 11:56:07;;;;;;;20.55;6.18;;;;;;;;;;5052700;27;92666;-76
2024/01/27 11:58:34;;;;;;;19.25;6.05;;;;;;;;;;5052720;27;92121;-77
2024/01/27 12:01:00;;;;;;;18.27;5.03;;;;;;;;;;5032873;27;95341;-76
2024/01/27 12:03:28;;;;;;;26.10;4.63;;;;;;;;;;5053151;27;92412;-77
2024/01/27 12:05:55;;;;;;;11.45;4.10;;;;;;;;;;5040108;27;92680;-77
2024/01/27 12:08:22;;;;;;;8.95;3.88;;;;;;;;;;5038221;27;92551;-76
2024/01/27 12:10:49;;;;;;;24.38;5.00;;;;;;;;;;5052980;27;92769;-76
2024/01/27 12:13:16;;;;;;;14.90;4.15;;;;;;;;;;5053580;27;92460;-77
2024/01/27 12:15:42;;;;;;;18.38;4.45;;;;;;;;;;5035181;27;92511;-76
2024/01/27 12:18:09;;;;;;;11.82;3.92;;;;;;;;;;5007254;28;94825;-76
2024/01/27 12:20:36;;;;;;;12.52;4.10;;;;;;;;;;5051119;27;92573;-76
2024/01/27 12:23:06;;;;;;;8.93;3.97;;;;;;;;;;5018786;27;95999;-76
2024/01/27 12:25:33;;;;;;;14.85;4.05;;;;;;;;;;5050764;27;94791;-75
2024/01/27 12:28:03;;;;;;;10.35;3.50;;;;;;;;;;5034366;27;92328;-76
2024/01/27 12:30:31;;;;;;;12.95;4.00;;;;;;;;;;5036587;27;93984;-75
2024/01/27 12:32:58;;;;;;;17.52;4.03;;;;;;;;;;5034656;27;92261;-75
2024/01/27 12:35:26;;;;;;;13.07;3.40;;;;;;;;;;5052171;27;92906;-76
2024/01/27 12:37:53;;;;;;;14.30;3.75;;;;;;;;;;5053532;27;92699;-76
2024/01/27 12:40:20;;;;;;;10.45;3.22;;;;;;;;;;5052966;27;92787;-76
2024/01/27 12:42:50;;;;;;;12.70;4.25;;;;;;;;;;5051676;27;92114;-77
2024/01/27 12:45:19;;;;;;;12.23;2.92;;;;;;;;;;5019077;27;93137;-76
2024/01/27 12:47:46;;;;;;;13.95;3.38;;;;;;;;;;5053565;27;93352;-76
2024/01/27 12:50:13;;;;;;;11.15;3.08;;;;;;;;;;5050469;27;94872;-78
2024/01/27 12:52:39;;;;;;;11.65;2.95;;;;;;;;;;5055514;27;94167;-77
2024/01/27 12:55:06;;;;;;;9.07;2.88;;;;;;;;;;5032184;27;93793;-76
2024/01/27 12:57:33;;;;;;;7.72;3.17;;;;;;;;;;5017940;27;94104;-77
2024/01/27 12:59:59;;;;;;;7.95;2.38;;;;;;;;;;5017859;27;92338;-76
2024/01/27 13:02:26;;;;;;;9.30;2.53;;;;;;;;;;5053447;27;92412;-76
2024/01/27 13:04:52;;;;;;;6.53;2.58;;;;;;;;;;5033744;27;93628;-76
2024/01/27 13:07:19;;;;;;;13.90;3.42;;;;;;;;;;5053122;27;92462;-76
2024/01/27 13:09:45;;;;;;;6.18;3.10;;;;;;;;;;5052720;27;92395;-77
2024/01/27 13:12:12;;;;;;;7.60;2.70;;;;;;;;;;5053498;27;92894;-76
2024/01/27 13:14:39;;;;;;;8.13;2.80;;;;;;;;;;5034178;27;95878;-76
2024/01/27 13:17:05;;;;;;;8.75;2.67;;;;;;;;;;5053100;27;93962;-76
2024/01/27 13:19:34;;;;;;;8.30;3.03;;;;;;;;;;5051624;27;93218;-76
2024/01/27 13:22:01;;;;;;;6.60;2.70;;;;;;;;;;5052795;27;92532;-76
2024/01/27 13:24:28;;;;;;;6.07;2.58;;;;;;;;;;5051702;27;92385;-77
2024/01/27 13:26:54;;;;;;;8.85;2.63;;;;;;;;;;5034328;27;93222;-76
2024/01/27 13:29:23;;;;;;;9.02;3.22;;;;;;;;;;5032903;27;95385;-77
2024/01/27 13:31:50;;;;;;;6.85;2.83;;;;;;;;;;5052851;27;92042;-77
2024/01/27 13:34:16;;;;;;;5.63;2.30;;;;;;;;;;5051465;27;92906;-76
2024/01/27 13:36:43;;;;;;;11.70;3.17;;;;;;;;;;5026826;28;92948;-77
2024/01/27 13:39:10;;;;;;;5.80;2.10;;;;;;;;;;5042976;27;97640;-76
2024/01/27 13:41:37;;;;;;;8.05;2.35;;;;;;;;;;5051804;27;92424;-76
2024/01/27 13:44:04;;;;;;;8.27;2.22;;;;;;;;;;5053162;27;92822;-77
2024/01/27 13:46:31;;;;;;;14.35;2.15;;;;;;;;;;5055637;27;92826;-77
2024/01/27 13:48:57;;;;;;;9.18;2.22;;;;;;;;;;5056108;27;93039;-77
2024/01/27 13:51:24;;;;;;;15.02;3.78;;;;;;;;;;5036928;27;92516;-77
2024/01/27 13:53:51;;;;;;;7.70;1.98;;;;;;;;;;5055379;27;93516;-77
2024/01/27 13:56:19;;;;;;;17.40;3.05;;;;;;;;;;5037019;27;93297;-77
2024/01/27 13:58:48;;;;;;;11.68;2.60;;;;;;;;;;5057659;27;92423;-77
2024/01/27 14:01:15;;;;;;;7.78;2.42;;;;;;;;;;5055152;27;92318;-77
2024/01/27 14:03:42;;;;;;;9.30;2.40;;;;;;;;;;5054970;27;94586;-77
2024/01/27 14:06:11;;;;;;;11.82;2.90;;;;;;;;;;5055291;27;92323;-77
2024/01/27 14:08:40;;;;;;;3.83;2.00;;;;;;;;;;5036269;27;93646;-77
2024/01/27 14:11:07;;;;;;;16.58;2.58;;;;;;;;;;5038150;27;92489;-78
2024/01/27 14:13:33;;;;;;;8.90;2.13;;;;;;;;;;5055681;27;93044;-77
2024/01/27 14:16:00;;;;;;;12.25;2.67;;;;;;;;;;5055190;27;92486;-77
2024/01/27 14:18:26;;;;;;;7.22;2.08;;;;;;;;;;5058621;27;92365;-77
2024/01/27 14:20:53;;;;;;;10.40;2.88;;;;;;;;;;5055710;27;92285;-77
2024/01/27 14:23:19;;;;;;;5.65;2.05;;;;;;;;;;5055013;27;92510;-77
2024/01/27 14:25:46;;;;;;;11.40;2.97;;;;;;;;;;5036677;27;92346;-77
2024/01/27 14:28:13;;;;;;;7.40;2.13;;;;;;;;;;5036626;27;94952;-78
2024/01/27 14:30:40;;;;;;;10.93;2.50;;;;;;;;;;5037213;27;94158;-76
2024/01/27 14:33:08;;;;;;;7.90;3.03;;;;;;;;;;5056704;27;92302;-77
2024/01/27 14:35:35;;;;;;;10.55;2.35;;;;;;;;;;5037478;27;92342;-76
2024/01/27 14:38:02;;;;;;;6.18;2.33;;;;;;;;;;5057623;27;92480;-75